sensor_id;sensor_type;location;lat;lon;timestamp;pressure;altitude;pressure_sealevel;temperature;humidity
27334;BME280;14817;57.104;-2.094;2022-09-21T00:01:25;101316.25;;;13.29;80.05
27334;BME280;14817;57.104;-2.094;2022-09-21T00:04:02;101315.41;;;13.28;80.24
27334;BME280;14817;57.104;-2.094;2022-09-21T00:06:31;101318.78;;;13.31;80.17
27334;BME280;14817;57.104;-2.094;2022-09-21T00:08:58;101312.16;;;13.25;80.26
27334;BME280;14817;57.104;-2.094;2022-09-21T00:11:28;101297.75;;;13.44;79.46
27334;BME280;14817;57.104;-2.094;2022-09-21T00:14:01;101302.06;;;13.37;79.31
27334;BME280;14817;57.104;-2.094;2022-09-21T00:16:30;101289.19;;;13.31;80.01
27334;BME280;14817;57.104;-2.094;2022-09-21T00:18:58;101287.78;;;13.26;80.35
27334;BME280;14817;57.104;-2.094;2022-09-21T00:21:25;101299.69;;;13.24;80.07
27334;BME280;14817;57.104;-2.094;2022-09-21T00:23:53;101289.78;;;13.24;80.14
27334;BME280;14817;57.104;-2.094;2022-09-21T00:26:23;101290.47;;;13.26;80.29
27334;BME280;14817;57.104;-2.094;2022-09-21T00:28:52;101291.47;;;13.25;80.32
27334;BME280;14817;57.104;-2.094;2022-09-21T00:31:20;101289.94;;;13.23;80.30
27334;BME280;14817;57.104;-2.094;2022-09-21T00:33:47;101290.94;;;13.22;80.75
27334;BME280;14817;57.104;-2.094;2022-09-21T00:36:19;101294.44;;;13.22;80.60
27334;BME280;14817;57.104;-2.094;2022-09-21T00:38:55;101294.78;;;13.19;80.36
27334;BME280;14817;57.104;-2.094;2022-09-21T00:41:23;101290.00;;;13.13;80.64
27334;BME280;14817;57.104;-2.094;2022-09-21T00:44:24;101287.28;;;13.13;81.23
27334;BME280;14817;57.104;-2.094;2022-09-21T00:46:56;101282.94;;;13.12;81.06
27334;BME280;14817;57.104;-2.094;2022-09-21T00:49:24;101284.06;;;13.10;81.35
27334;BME280;14817;57.104;-2.094;2022-09-21T00:51:52;101291.97;;;13.11;81.18
27334;BME280;14817;57.104;-2.094;2022-09-21T00:54:24;101286.97;;;13.16;80.57
27334;BME280;14817;57.104;-2.094;2022-09-21T00:56:54;101291.94;;;13.21;80.52
27334;BME280;14817;57.104;-2.094;2022-09-21T00:59:21;101288.94;;;13.24;80.50
27334;BME280;14817;57.104;-2.094;2022-09-21T01:01:55;101281.69;;;13.34;80.33
27334;BME280;14817;57.104;-2.094;2022-09-21T01:04:22;101300.16;;;13.19;80.78
27334;BME280;14817;57.104;-2.094;2022-09-21T01:06:49;101281.47;;;13.18;80.28
27334;BME280;14817;57.104;-2.094;2022-09-21T01:09:17;101278.31;;;13.22;80.09
27334;BME280;14817;57.104;-2.094;2022-09-21T01:12:13;101272.84;;;13.14;80.33
27334;BME280;14817;57.104;-2.094;2022-09-21T01:14:55;101282.41;;;12.99;80.92
27334;BME280;14817;57.104;-2.094;2022-09-21T01:32:09;101295.63;;;12.55;82.07
27334;BME280;14817;57.104;-2.094;2022-09-21T01:34:42;101282.03;;;12.56;82.39
27334;BME280;14817;57.104;-2.094;2022-09-21T01:37:13;101280.22;;;12.47;82.97
27334;BME280;14817;57.104;-2.094;2022-09-21T01:39:44;101278.38;;;12.48;83.05
27334;BME280;14817;57.104;-2.094;2022-09-21T01:42:13;101271.84;;;12.50;82.65
27334;BME280;14817;57.104;-2.094;2022-09-21T01:44:43;101273.31;;;12.44;82.83
27334;BME280;14817;57.104;-2.094;2022-09-21T01:47:11;101266.22;;;12.43;82.83
27334;BME280;14817;57.104;-2.094;2022-09-21T01:49:46;101273.59;;;12.41;83.20
27334;BME280;14817;57.104;-2.094;2022-09-21T01:54:59;101277.47;;;12.29;83.64
27334;BME280;14817;57.104;-2.094;2022-09-21T01:57:54;101273.06;;;12.28;83.75
27334;BME280;14817;57.104;-2.094;2022-09-21T02:00:23;101275.88;;;12.36;83.45
27334;BME280;14817;57.104;-2.094;2022-09-21T02:02:53;101267.06;;;12.54;83.18
27334;BME280;14817;57.104;-2.094;2022-09-21T02:05:22;101271.59;;;12.43;83.43
27334;BME280;14817;57.104;-2.094;2022-09-21T02:07:51;101269.47;;;12.47;83.18
27334;BME280;14817;57.104;-2.094;2022-09-21T02:10:25;101269.34;;;12.49;83.22
27334;BME280;14817;57.104;-2.094;2022-09-21T02:12:54;101278.25;;;12.49;83.21
27334;BME280;14817;57.104;-2.094;2022-09-21T02:16:22;101277.78;;;12.54;83.47
27334;BME280;14817;57.104;-2.094;2022-09-21T02:32:27;101263.47;;;12.16;84.44
27334;BME280;14817;57.104;-2.094;2022-09-21T02:35:30;101264.66;;;12.03;85.52
27334;BME280;14817;57.104;-2.094;2022-09-21T02:38:30;101258.97;;;12.07;85.38
27334;BME280;14817;57.104;-2.094;2022-09-21T02:41:16;101261.09;;;12.13;84.87
27334;BME280;14817;57.104;-2.094;2022-09-21T02:43:49;101256.44;;;12.15;84.79
27334;BME280;14817;57.104;-2.094;2022-09-21T02:46:23;101259.53;;;12.10;85.32
27334;BME280;14817;57.104;-2.094;2022-09-21T02:48:56;101257.44;;;12.04;85.14
27334;BME280;14817;57.104;-2.094;2022-09-21T02:51:28;101255.28;;;12.08;85.13
27334;BME280;14817;57.104;-2.094;2022-09-21T02:53:57;101254.63;;;12.05;85.50
27334;BME280;14817;57.104;-2.094;2022-09-21T02:56:26;101253.75;;;12.05;85.45
27334;BME280;14817;57.104;-2.094;2022-09-21T02:58:56;101252.78;;;12.06;85.31
27334;BME280;14817;57.104;-2.094;2022-09-21T03:01:25;101238.66;;;12.04;85.08
27334;BME280;14817;57.104;-2.094;2022-09-21T03:03:53;101240.31;;;12.05;85.11
27334;BME280;14817;57.104;-2.094;2022-09-21T03:06:20;101242.31;;;12.03;85.26
27334;BME280;14817;57.104;-2.094;2022-09-21T03:08:47;101240.06;;;12.08;85.23
27334;BME280;14817;57.104;-2.094;2022-09-21T03:11:18;101233.81;;;12.08;85.43
27334;BME280;14817;57.104;-2.094;2022-09-21T03:13:45;101222.66;;;12.02;85.14
27334;BME280;14817;57.104;-2.094;2022-09-21T03:16:12;101231.03;;;11.99;85.48
27334;BME280;14817;57.104;-2.094;2022-09-21T03:18:39;101232.56;;;11.92;85.42
27334;BME280;14817;57.104;-2.094;2022-09-21T03:21:07;101235.38;;;11.81;85.69
27334;BME280;14817;57.104;-2.094;2022-09-21T03:23:34;101229.03;;;11.72;85.66
27334;BME280;14817;57.104;-2.094;2022-09-21T03:26:01;101229.31;;;11.69;85.80
27334;BME280;14817;57.104;-2.094;2022-09-21T03:28:28;101224.25;;;11.66;86.02
27334;BME280;14817;57.104;-2.094;2022-09-21T03:30:54;101225.09;;;11.67;86.09
27334;BME280;14817;57.104;-2.094;2022-09-21T03:33:22;101231.03;;;11.70;85.90
27334;BME280;14817;57.104;-2.094;2022-09-21T03:35:51;101227.50;;;11.70;86.04
27334;BME280;14817;57.104;-2.094;2022-09-21T03:38:18;101227.06;;;11.64;85.72
27334;BME280;14817;57.104;-2.094;2022-09-21T03:40:47;101224.53;;;11.63;85.75
27334;BME280;14817;57.104;-2.094;2022-09-21T03:43:14;101216.75;;;11.60;85.89
27334;BME280;14817;57.104;-2.094;2022-09-21T03:45:42;101217.31;;;11.54;86.05
27334;BME280;14817;57.104;-2.094;2022-09-21T03:48:10;101216.47;;;11.53;85.83
27334;BME280;14817;57.104;-2.094;2022-09-21T03:50:37;101207.88;;;11.40;86.00
27334;BME280;14817;57.104;-2.094;2022-09-21T03:53:05;101206.47;;;11.36;86.53
27334;BME280;14817;57.104;-2.094;2022-09-21T03:55:32;101203.06;;;11.34;86.38
27334;BME280;14817;57.104;-2.094;2022-09-21T03:58:00;101204.50;;;11.38;86.31
27334;BME280;14817;57.104;-2.094;2022-09-21T04:00:27;101201.38;;;11.52;85.78
27334;BME280;14817;57.104;-2.094;2022-09-21T04:02:54;101198.97;;;11.59;85.86
27334;BME280;14817;57.104;-2.094;2022-09-21T04:05:21;101207.88;;;11.50;85.71
27334;BME280;14817;57.104;-2.094;2022-09-21T04:07:49;101202.22;;;11.43;85.73
27334;BME280;14817;57.104;-2.094;2022-09-21T04:10:18;101197.16;;;11.40;85.78
27334;BME280;14817;57.104;-2.094;2022-09-21T04:12:45;101192.34;;;11.53;85.54
27334;BME280;14817;57.104;-2.094;2022-09-21T04:15:14;101196.03;;;11.52;85.85
27334;BME280;14817;57.104;-2.094;2022-09-21T04:17:41;101194.88;;;11.45;85.82
27334;BME280;14817;57.104;-2.094;2022-09-21T04:20:08;101191.06;;;11.38;86.07
27334;BME280;14817;57.104;-2.094;2022-09-21T04:22:35;101196.28;;;11.30;86.24
27334;BME280;14817;57.104;-2.094;2022-09-21T04:25:08;101198.97;;;11.30;86.26
27334;BME280;14817;57.104;-2.094;2022-09-21T04:27:35;101196.16;;;11.31;86.50
27334;BME280;14817;57.104;-2.094;2022-09-21T04:30:02;101187.25;;;11.21;86.71
27334;BME280;14817;57.104;-2.094;2022-09-21T04:32:30;101189.91;;;11.11;87.06
27334;BME280;14817;57.104;-2.094;2022-09-21T04:34:57;101187.25;;;11.11;87.17
27334;BME280;14817;57.104;-2.094;2022-09-21T04:37:23;101181.75;;;11.13;87.17
27334;BME280;14817;57.104;-2.094;2022-09-21T04:39:50;101176.97;;;11.16;87.24
27334;BME280;14817;57.104;-2.094;2022-09-21T04:42:17;101167.50;;;11.32;86.50
27334;BME280;14817;57.104;-2.094;2022-09-21T04:44:44;101167.78;;;11.29;87.71
27334;BME280;14817;57.104;-2.094;2022-09-21T04:47:11;101171.44;;;11.28;88.38
27334;BME280;14817;57.104;-2.094;2022-09-21T04:49:37;101166.38;;;11.24;88.35
27334;BME280;14817;57.104;-2.094;2022-09-21T04:52:04;101163.97;;;11.21;88.41
27334;BME280;14817;57.104;-2.094;2022-09-21T04:54:31;101164.41;;;11.27;87.76
27334;BME280;14817;57.104;-2.094;2022-09-21T04:56:58;101159.19;;;11.25;88.13
27334;BME280;14817;57.104;-2.094;2022-09-21T04:59:25;101167.78;;;11.29;88.26
27334;BME280;14817;57.104;-2.094;2022-09-21T05:01:51;101162.41;;;11.29;87.93
27334;BME280;14817;57.104;-2.094;2022-09-21T05:04:18;101171.16;;;11.31;87.97
27334;BME280;14817;57.104;-2.094;2022-09-21T05:06:45;101167.22;;;11.35;87.38
27334;BME280;14817;57.104;-2.094;2022-09-21T05:09:12;101174.28;;;11.36;88.15
27334;BME280;14817;57.104;-2.094;2022-09-21T05:11:57;101168.50;;;11.40;87.71
27334;BME280;14817;57.104;-2.094;2022-09-21T05:14:24;101170.59;;;11.37;87.72
27334;BME280;14817;57.104;-2.094;2022-09-21T05:16:51;101175.13;;;11.36;87.62
27334;BME280;14817;57.104;-2.094;2022-09-21T05:19:18;101168.22;;;11.34;87.40
27334;BME280;14817;57.104;-2.094;2022-09-21T05:21:44;101169.63;;;11.38;87.51
27334;BME280;14817;57.104;-2.094;2022-09-21T05:24:11;101170.19;;;11.32;87.66
27334;BME280;14817;57.104;-2.094;2022-09-21T05:26:38;101177.22;;;11.33;87.60
27334;BME280;14817;57.104;-2.094;2022-09-21T05:29:05;101165.53;;;11.34;87.93
27334;BME280;14817;57.104;-2.094;2022-09-21T05:31:46;101166.38;;;11.34;87.63
27334;BME280;14817;57.104;-2.094;2022-09-21T05:37:07;101164.97;;;11.30;88.04
27334;BME280;14817;57.104;-2.094;2022-09-21T05:39:35;101165.53;;;11.34;88.30
27334;BME280;14817;57.104;-2.094;2022-09-21T05:42:02;101164.41;;;11.36;88.19
27334;BME280;14817;57.104;-2.094;2022-09-21T05:44:30;101171.44;;;11.28;87.85
27334;BME280;14817;57.104;-2.094;2022-09-21T05:50:00;101174.00;;;11.19;88.27
27334;BME280;14817;57.104;-2.094;2022-09-21T06:03:48;101162.16;;;11.32;88.91
27334;BME280;14817;57.104;-2.094;2022-09-21T06:06:19;101172.19;;;11.39;88.66
27334;BME280;14817;57.104;-2.094;2022-09-21T06:08:46;101171.44;;;11.47;88.50
27334;BME280;14817;57.104;-2.094;2022-09-21T06:11:13;101173.00;;;11.50;88.10
27334;BME280;14817;57.104;-2.094;2022-09-21T06:13:40;101166.94;;;11.57;88.12
27334;BME280;14817;57.104;-2.094;2022-09-21T06:16:07;101161.13;;;11.62;87.70
27334;BME280;14817;57.104;-2.094;2022-09-21T06:18:37;101165.63;;;11.81;87.71
27334;BME280;14817;57.104;-2.094;2022-09-21T06:21:05;101165.31;;;12.03;87.48
27334;BME280;14817;57.104;-2.094;2022-09-21T06:23:33;101165.84;;;12.17;86.53
27334;BME280;14817;57.104;-2.094;2022-09-21T06:25:59;101164.25;;;12.24;85.82
27334;BME280;14817;57.104;-2.094;2022-09-21T06:28:26;101152.56;;;12.43;85.65
27334;BME280;14817;57.104;-2.094;2022-09-21T06:30:54;101149.75;;;12.90;84.43
27334;BME280;14817;57.104;-2.094;2022-09-21T06:33:22;101153.22;;;13.80;81.26
27334;BME280;14817;57.104;-2.094;2022-09-21T06:35:57;101148.53;;;14.08;78.89
27334;BME280;14817;57.104;-2.094;2022-09-21T06:38:25;101157.56;;;13.99;79.48
27334;BME280;14817;57.104;-2.094;2022-09-21T06:40:53;101155.75;;;13.82;79.57
27334;BME280;14817;57.104;-2.094;2022-09-21T06:43:20;101164.50;;;13.58;80.74
27334;BME280;14817;57.104;-2.094;2022-09-21T06:45:57;101161.34;;;13.62;80.77
27334;BME280;14817;57.104;-2.094;2022-09-21T06:48:25;101157.22;;;13.50;81.35
27334;BME280;14817;57.104;-2.094;2022-09-21T06:50:57;101158.44;;;13.56;80.90
27334;BME280;14817;57.104;-2.094;2022-09-21T06:53:28;101147.19;;;13.60;80.88
27334;BME280;14817;57.104;-2.094;2022-09-21T06:56:03;101149.59;;;13.89;80.51
27334;BME280;14817;57.104;-2.094;2022-09-21T06:58:31;101151.59;;;13.87;79.91
27334;BME280;14817;57.104;-2.094;2022-09-21T07:01:07;101157.25;;;13.76;80.44
27334;BME280;14817;57.104;-2.094;2022-09-21T07:03:35;101160.38;;;13.63;80.39
27334;BME280;14817;57.104;-2.094;2022-09-21T07:06:02;101154.97;;;13.63;81.38
27334;BME280;14817;57.104;-2.094;2022-09-21T07:08:29;101143.69;;;13.86;80.26
27334;BME280;14817;57.104;-2.094;2022-09-21T07:11:16;101142.84;;;15.38;76.22
27334;BME280;14817;57.104;-2.094;2022-09-21T07:13:43;101134.03;;;16.01;73.11
27334;BME280;14817;57.104;-2.094;2022-09-21T07:16:10;101126.22;;;16.85;70.68
27334;BME280;14817;57.104;-2.094;2022-09-21T07:18:39;101134.53;;;17.53;67.87
27334;BME280;14817;57.104;-2.094;2022-09-21T07:21:10;101130.53;;;17.64;67.62
27334;BME280;14817;57.104;-2.094;2022-09-21T07:23:37;101136.19;;;17.92;66.83
27334;BME280;14817;57.104;-2.094;2022-09-21T07:26:07;101135.69;;;17.73;65.24
27334;BME280;14817;57.104;-2.094;2022-09-21T07:28:34;101138.47;;;18.03;65.51
27334;BME280;14817;57.104;-2.094;2022-09-21T07:31:09;101129.88;;;18.14;65.10
27334;BME280;14817;57.104;-2.094;2022-09-21T07:33:37;101126.94;;;18.46;64.23
27334;BME280;14817;57.104;-2.094;2022-09-21T07:36:04;101125.63;;;18.56;65.04
27334;BME280;14817;57.104;-2.094;2022-09-21T07:38:40;101129.28;;;18.49;63.65
27334;BME280;14817;57.104;-2.094;2022-09-21T07:41:09;101122.34;;;18.97;62.41
27334;BME280;14817;57.104;-2.094;2022-09-21T07:43:36;101130.38;;;19.06;63.48
27334;BME280;14817;57.104;-2.094;2022-09-21T07:46:08;101128.66;;;19.26;62.17
27334;BME280;14817;57.104;-2.094;2022-09-21T07:48:35;101130.06;;;19.65;60.89
27334;BME280;14817;57.104;-2.094;2022-09-21T07:51:05;101128.09;;;20.15;58.98
27334;BME280;14817;57.104;-2.094;2022-09-21T07:53:33;101135.09;;;19.96;61.06
27334;BME280;14817;57.104;-2.094;2022-09-21T07:56:05;101122.81;;;20.07;60.87
27334;BME280;14817;57.104;-2.094;2022-09-21T07:58:32;101117.63;;;19.77;59.54
27334;BME280;14817;57.104;-2.094;2022-09-21T08:01:17;101120.22;;;19.92;59.22
27334;BME280;14817;57.104;-2.094;2022-09-21T08:03:47;101120.81;;;20.23;58.83
27334;BME280;14817;57.104;-2.094;2022-09-21T08:06:14;101118.53;;;20.26;58.21
27334;BME280;14817;57.104;-2.094;2022-09-21T08:08:41;101117.47;;;20.21;58.62
27334;BME280;14817;57.104;-2.094;2022-09-21T08:11:07;101113.34;;;20.31;59.27
27334;BME280;14817;57.104;-2.094;2022-09-21T08:13:34;101109.44;;;20.06;58.38
27334;BME280;14817;57.104;-2.094;2022-09-21T08:16:01;101122.34;;;20.32;57.63
27334;BME280;14817;57.104;-2.094;2022-09-21T08:18:29;101121.38;;;20.53;58.00
27334;BME280;14817;57.104;-2.094;2022-09-21T08:20:58;101119.28;;;20.07;59.09
27334;BME280;14817;57.104;-2.094;2022-09-21T08:23:25;101121.16;;;20.48;57.69
27334;BME280;14817;57.104;-2.094;2022-09-21T08:26:02;101118.00;;;20.44;57.81
27334;BME280;14817;57.104;-2.094;2022-09-21T08:28:31;101112.66;;;20.23;58.79
27334;BME280;14817;57.104;-2.094;2022-09-21T08:31:06;101112.09;;;20.89;57.40
27334;BME280;14817;57.104;-2.094;2022-09-21T08:33:36;101115.69;;;19.99;58.82
27334;BME280;14817;57.104;-2.094;2022-09-21T08:36:03;101124.09;;;19.76;60.46
27334;BME280;14817;57.104;-2.094;2022-09-21T08:38:32;101110.28;;;20.06;59.33
27334;BME280;14817;57.104;-2.094;2022-09-21T08:41:00;101110.91;;;20.50;58.10
27334;BME280;14817;57.104;-2.094;2022-09-21T08:43:35;101100.97;;;20.29;58.92
27334;BME280;14817;57.104;-2.094;2022-09-21T08:46:11;101102.25;;;20.33;59.46
27334;BME280;14817;57.104;-2.094;2022-09-21T08:48:42;101095.06;;;20.60;59.07
27334;BME280;14817;57.104;-2.094;2022-09-21T08:51:16;101098.53;;;21.35;57.45
27334;BME280;14817;57.104;-2.094;2022-09-21T08:53:51;101094.78;;;21.43;57.48
27334;BME280;14817;57.104;-2.094;2022-09-21T08:56:19;101092.00;;;21.10;56.71
27334;BME280;14817;57.104;-2.094;2022-09-21T08:58:47;101099.34;;;21.03;56.86
27334;BME280;14817;57.104;-2.094;2022-09-21T09:04:49;101098.31;;;21.10;57.21
27334;BME280;14817;57.104;-2.094;2022-09-21T09:10:40;101099.78;;;21.26;57.54
27334;BME280;14817;57.104;-2.094;2022-09-21T09:15:53;101095.59;;;21.57;56.56
27334;BME280;14817;57.104;-2.094;2022-09-21T09:21:25;101096.22;;;21.86;54.83
27334;BME280;14817;57.104;-2.094;2022-09-21T09:27:03;101094.34;;;21.13;55.53
27334;BME280;14817;57.104;-2.094;2022-09-21T09:32:13;101086.31;;;20.23;57.88
27334;BME280;14817;57.104;-2.094;2022-09-21T09:34:44;101087.38;;;20.29;59.18
27334;BME280;14817;57.104;-2.094;2022-09-21T09:37:24;101082.78;;;20.29;58.56
27334;BME280;14817;57.104;-2.094;2022-09-21T09:39:54;101077.75;;;21.14;56.67
27334;BME280;14817;57.104;-2.094;2022-09-21T09:42:39;101072.50;;;20.93;56.00
27334;BME280;14817;57.104;-2.094;2022-09-21T09:45:41;101068.09;;;20.72;57.87
27334;BME280;14817;57.104;-2.094;2022-09-21T09:50:58;101062.84;;;20.64;58.00
27334;BME280;14817;57.104;-2.094;2022-09-21T09:53:25;101064.03;;;20.54;60.02
27334;BME280;14817;57.104;-2.094;2022-09-21T09:55:55;101080.91;;;20.30;59.26
27334;BME280;14817;57.104;-2.094;2022-09-21T09:58:31;101077.25;;;20.09;59.88
27334;BME280;14817;57.104;-2.094;2022-09-21T10:01:00;101074.78;;;20.14;59.61
27334;BME280;14817;57.104;-2.094;2022-09-21T10:03:27;101072.41;;;20.05;60.67
27334;BME280;14817;57.104;-2.094;2022-09-21T10:05:54;101073.31;;;20.67;59.31
27334;BME280;14817;57.104;-2.094;2022-09-21T10:11:04;101070.03;;;21.18;57.60
27334;BME280;14817;57.104;-2.094;2022-09-21T10:13:36;101067.28;;;21.25;57.26
27334;BME280;14817;57.104;-2.094;2022-09-21T10:16:18;101067.09;;;21.33;57.27
27334;BME280;14817;57.104;-2.094;2022-09-21T10:18:50;101070.41;;;20.95;58.51
27334;BME280;14817;57.104;-2.094;2022-09-21T10:21:24;101069.06;;;20.51;59.83
27334;BME280;14817;57.104;-2.094;2022-09-21T10:24:00;101069.13;;;20.23;60.03
27334;BME280;14817;57.104;-2.094;2022-09-21T10:26:36;101072.16;;;20.48;59.64
27334;BME280;14817;57.104;-2.094;2022-09-21T10:34:24;101059.16;;;19.95;61.33
27334;BME280;14817;57.104;-2.094;2022-09-21T10:36:55;101059.22;;;20.02;60.18
27334;BME280;14817;57.104;-2.094;2022-09-21T10:39:29;101073.28;;;19.49;62.66
27334;BME280;14817;57.104;-2.094;2022-09-21T10:42:02;101064.00;;;19.93;60.62
27334;BME280;14817;57.104;-2.094;2022-09-21T10:44:42;101067.22;;;19.47;62.85
27334;BME280;14817;57.104;-2.094;2022-09-21T10:47:38;101061.81;;;19.53;61.90
27334;BME280;14817;57.104;-2.094;2022-09-21T10:50:23;101049.97;;;19.33;62.83
27334;BME280;14817;57.104;-2.094;2022-09-21T10:53:40;101046.69;;;19.37;62.59
27334;BME280;14817;57.104;-2.094;2022-09-21T10:55:52;101048.09;;;19.33;62.90
27334;BME280;14817;57.104;-2.094;2022-09-21T10:59:19;101048.09;;;19.33;62.33
27334;BME280;14817;57.104;-2.094;2022-09-21T11:01:51;101040.38;;;19.09;63.15
27334;BME280;14817;57.104;-2.094;2022-09-21T11:04:33;101038.03;;;19.27;63.01
27334;BME280;14817;57.104;-2.094;2022-09-21T11:07:16;101031.16;;;19.59;62.07
27334;BME280;14817;57.104;-2.094;2022-09-21T11:09:56;101039.47;;;19.23;62.46
27334;BME280;14817;57.104;-2.094;2022-09-21T11:12:41;101035.66;;;18.74;64.62
27334;BME280;14817;57.104;-2.094;2022-09-21T11:18:07;101027.56;;;19.03;64.11
27334;BME280;14817;57.104;-2.094;2022-09-21T11:20:48;101022.97;;;18.60;65.25
27334;BME280;14817;57.104;-2.094;2022-09-21T11:26:12;101029.41;;;18.95;64.05
27334;BME280;14817;57.104;-2.094;2022-09-21T11:28:52;101023.03;;;18.67;65.19
27334;BME280;14817;57.104;-2.094;2022-09-21T11:31:36;101028.59;;;18.59;64.95
27334;BME280;14817;57.104;-2.094;2022-09-21T11:37:18;101016.56;;;18.46;65.55
27334;BME280;14817;57.104;-2.094;2022-09-21T11:40:03;101012.69;;;18.34;67.33
27334;BME280;14817;57.104;-2.094;2022-09-21T11:45:53;101014.06;;;18.08;68.10
27334;BME280;14817;57.104;-2.094;2022-09-21T11:57:15;101003.00;;;18.25;66.97
27334;BME280;14817;57.104;-2.094;2022-09-21T12:00:04;101003.84;;;18.10;67.23
27334;BME280;14817;57.104;-2.094;2022-09-21T12:08:22;100996.69;;;17.88;68.31
27334;BME280;14817;57.104;-2.094;2022-09-21T12:16:07;100998.53;;;17.58;69.95
27334;BME280;14817;57.104;-2.094;2022-09-21T12:18:45;100987.63;;;17.51;70.06
27334;BME280;14817;57.104;-2.094;2022-09-21T12:23:53;100988.00;;;17.63;69.61
27334;BME280;14817;57.104;-2.094;2022-09-21T12:26:30;100989.19;;;17.60;70.00
27334;BME280;14817;57.104;-2.094;2022-09-21T12:29:11;100976.31;;;17.47;69.70
27334;BME280;14817;57.104;-2.094;2022-09-21T12:31:46;100982.19;;;17.36;70.24
27334;BME280;14817;57.104;-2.094;2022-09-21T12:34:20;100980.91;;;16.94;71.81
27334;BME280;14817;57.104;-2.094;2022-09-21T12:37:03;100977.75;;;17.43;71.17
27334;BME280;14817;57.104;-2.094;2022-09-21T12:39:53;100973.59;;;17.32;71.92
27334;BME280;14817;57.104;-2.094;2022-09-21T12:42:28;100970.94;;;16.94;72.45
27334;BME280;14817;57.104;-2.094;2022-09-21T12:45:05;100967.34;;;17.17;72.06
27334;BME280;14817;57.104;-2.094;2022-09-21T12:52:52;100966.44;;;16.87;72.89
27334;BME280;14817;57.104;-2.094;2022-09-21T12:55:41;100969.88;;;16.81;72.64
27334;BME280;14817;57.104;-2.094;2022-09-21T12:58:46;100965.47;;;17.03;72.37
27334;BME280;14817;57.104;-2.094;2022-09-21T13:09:24;100959.97;;;16.73;72.48
27334;BME280;14817;57.104;-2.094;2022-09-21T13:14:24;100958.53;;;16.62;73.27
27334;BME280;14817;57.104;-2.094;2022-09-21T13:16:58;100950.59;;;16.61;73.33
27334;BME280;14817;57.104;-2.094;2022-09-21T13:19:30;100956.69;;;17.01;72.29
27334;BME280;14817;57.104;-2.094;2022-09-21T13:22:21;100953.22;;;16.69;73.21
27334;BME280;14817;57.104;-2.094;2022-09-21T13:33:03;100945.28;;;16.90;72.82
27334;BME280;14817;57.104;-2.094;2022-09-21T13:36:28;100936.41;;;16.82;72.67
27334;BME280;14817;57.104;-2.094;2022-09-21T13:43:45;100932.22;;;16.56;73.54
27334;BME280;14817;57.104;-2.094;2022-09-21T13:46:51;100936.63;;;16.49;73.79
27334;BME280;14817;57.104;-2.094;2022-09-21T13:49:30;100926.91;;;16.63;73.50
27334;BME280;14817;57.104;-2.094;2022-09-21T13:54:54;100925.22;;;16.62;73.21
27334;BME280;14817;57.104;-2.094;2022-09-21T13:57:38;100914.03;;;16.65;73.36
27334;BME280;14817;57.104;-2.094;2022-09-21T14:00:27;100926.25;;;16.38;74.26
27334;BME280;14817;57.104;-2.094;2022-09-21T14:03:00;100912.84;;;16.44;74.19
27334;BME280;14817;57.104;-2.094;2022-09-21T14:05:30;100908.59;;;16.27;74.45
27334;BME280;14817;57.104;-2.094;2022-09-21T14:08:06;100914.28;;;16.32;74.48
27334;BME280;14817;57.104;-2.094;2022-09-21T14:10:55;100914.38;;;16.24;74.79
27334;BME280;14817;57.104;-2.094;2022-09-21T14:13:32;100905.91;;;16.27;74.38
27334;BME280;14817;57.104;-2.094;2022-09-21T14:27:27;100886.38;;;16.40;74.07
27334;BME280;14817;57.104;-2.094;2022-09-21T14:32:52;100895.19;;;16.33;74.46
27334;BME280;14817;57.104;-2.094;2022-09-21T14:35:24;100890.50;;;16.27;74.06
27334;BME280;14817;57.104;-2.094;2022-09-21T14:38:04;100892.56;;;16.25;74.35
27334;BME280;14817;57.104;-2.094;2022-09-21T14:40:38;100887.19;;;16.40;74.06
27334;BME280;14817;57.104;-2.094;2022-09-21T14:43:12;100880.84;;;16.56;73.50
27334;BME280;14817;57.104;-2.094;2022-09-21T14:48:14;100870.25;;;16.46;73.06
27334;BME280;14817;57.104;-2.094;2022-09-21T14:50:54;100872.22;;;16.52;72.59
27334;BME280;14817;57.104;-2.094;2022-09-21T15:04:22;100858.97;;;16.43;72.31
27334;BME280;14817;57.104;-2.094;2022-09-21T15:12:34;100850.53;;;16.23;73.65
27334;BME280;14817;57.104;-2.094;2022-09-21T15:17:50;100847.03;;;16.37;72.90
27334;BME280;14817;57.104;-2.094;2022-09-21T15:20:26;100848.03;;;16.36;72.84
27334;BME280;14817;57.104;-2.094;2022-09-21T15:22:58;100847.03;;;16.37;72.29
27334;BME280;14817;57.104;-2.094;2022-09-21T15:25:31;100846.66;;;16.40;71.55
27334;BME280;14817;57.104;-2.094;2022-09-21T15:27:59;100830.88;;;16.29;71.69
27334;BME280;14817;57.104;-2.094;2022-09-21T15:30:27;100843.66;;;16.35;71.66
27334;BME280;14817;57.104;-2.094;2022-09-21T15:32:59;100831.94;;;16.43;71.16
27334;BME280;14817;57.104;-2.094;2022-09-21T15:35:31;100835.84;;;16.40;71.30
27334;BME280;14817;57.104;-2.094;2022-09-21T15:37:59;100818.31;;;16.36;71.62
27334;BME280;14817;57.104;-2.094;2022-09-21T15:40:35;100817.31;;;16.37;71.79
27334;BME280;14817;57.104;-2.094;2022-09-21T15:45:50;100809.09;;;16.30;71.79
27334;BME280;14817;57.104;-2.094;2022-09-21T15:48:17;100808.34;;;16.37;71.36
27334;BME280;14817;57.104;-2.094;2022-09-21T15:51:10;100807.56;;;16.28;71.30
27334;BME280;14817;57.104;-2.094;2022-09-21T15:53:43;100799.84;;;16.25;71.70
27334;BME280;14817;57.104;-2.094;2022-09-21T15:56:25;100801.97;;;16.29;71.13
27334;BME280;14817;57.104;-2.094;2022-09-21T15:59:00;100808.66;;;16.19;71.11
27334;BME280;14817;57.104;-2.094;2022-09-21T16:01:39;100806.69;;;16.12;71.71
27334;BME280;14817;57.104;-2.094;2022-09-21T16:04:14;100808.00;;;16.17;70.96
27334;BME280;14817;57.104;-2.094;2022-09-21T16:06:45;100810.66;;;16.25;71.22
27334;BME280;14817;57.104;-2.094;2022-09-21T16:09:45;100811.38;;;16.19;71.90
27334;BME280;14817;57.104;-2.094;2022-09-21T16:12:37;100808.19;;;16.15;72.07